Latest Weather Observations for Cooma Airport

IDN60901

Issued at 10:51 pm EDT Saturday 25 January 2020 (issued every 10 minutes, with the page automatically refreshed every 10 minutes)

About weather observations | Map of Canberra area stations | Latest observations for Canberra area | Other Formats
Station Details ID: 070217 Name: COOMA AIRPORT AWS Lat: -36.29 Lon: 148.97 Height: 930.0 m
Data from the previous 72 hours. | See also: Recent months at Cooma Airport
Date/Time
EDT
Temp
°C
App
Temp
°C
Dew
Point
°C
Rel
Hum
%
Delta-T
°C
Wind Press
QNH
hPa
Press
MSL
hPa
Rain since
9am
mm
Dir  Spd
km/h
Gust
km/h
Spd
kts
Gust
kts
25/10:30pm 19.3 18.5 16.2 82 1.9 S 15 19 8 10 1016.9 1012.5 0.0
25/10:00pm 18.9 17.1 16.1 84 1.7 S 20 24 11 13 1016.7 1012.3 0.0
25/09:30pm 19.4 19.5 15.5 78 2.4 SSE 9 13 5 7 1016.2 1011.9 0.0
25/09:00pm 20.3 19.6 15.3 73 3.1 E 13 19 7 10 1015.7 1011.3 0.0
25/08:30pm 20.8 19.6 15.1 70 3.5 ENE 15 22 8 12 1015.2 1010.9 0.0
25/08:00pm 21.5 17.8 15.1 67 3.9 ENE 28 35 15 19 1014.2 1009.9 0.0
25/07:30pm 23.1 18.9 14.7 59 5.2 ENE 30 41 16 22 1013.7 1009.3 0.0
25/07:00pm 24.8 20.4 14.0 51 6.6 ENE 30 39 16 21 1013.2 1008.7 0.0
25/06:30pm 26.5 21.9 13.6 45 7.9 ENE 30 39 16 21 1012.6 1008.2 0.0
25/06:16pm 27.9 24.3 11.9 37 9.6 E 22 32 12 17 1012.5 1008.1 0.0
25/06:00pm 29.8 25.6 -3.8 11 15.7 NE 9 13 5 7 1012.3 1007.9 0.0
25/05:30pm 29.9 25.5 -2.6 12 15.5 NE 11 17 6 9 1012.5 1008.1 0.0
25/05:00pm 30.5 25.9 -1.0 13 15.5 NW 13 19 7 10 1012.8 1008.4 0.0
25/04:30pm 30.2 25.4 -2.3 12 15.6 WNW 13 20 7 11 1013.0 1008.6 0.0
25/04:00pm 30.0 25.2 -2.5 12 15.6 WNW 13 22 7 12 1013.3 1008.9 0.0
25/03:30pm 29.5 25.6 -1.8 13 15.1 NNW 9 19 5 10 1013.6 1009.2 0.0
25/03:00pm 29.2 24.0 -3.1 12 15.2 NNW 15 26 8 14 1013.7 1009.3 0.0
25/02:30pm 28.9 22.6 -1.2 14 14.6 N 22 35 12 19 1014.2 1009.9 0.0
25/02:00pm 28.3 23.6 -1.7 14 14.4 NW 13 24 7 13 1014.5 1010.1 0.0
25/01:30pm 27.8 23.9 -1.2 15 14.0 NW 9 26 5 14 1014.9 1010.5 0.0
25/01:00pm 27.6 22.0 -3.3 13 14.3 NNW 17 28 9 15 1015.1 1010.7 0.0
25/12:30pm 26.9 20.5 -4.9 12 14.2 NW 20 30 11 16 1015.6 1011.2 0.0
25/12:00pm 26.9 21.2 -1.0 16 13.4 NNW 19 35 10 19 1015.8 1011.4 0.0
25/11:30am 25.4 20.3 0.8 20 12.1 N 17 24 9 13 1015.9 1011.5 0.0
25/11:00am 24.9 19.0 4.1 26 10.8 N 24 35 13 19 1016.0 1011.6 0.0
25/10:30am 24.0 18.2 6.3 32 9.5 N 26 35 14 19 1016.0 1011.6 0.0
25/10:00am 22.3 17.0 8.4 41 7.7 N 26 33 14 18 1016.2 1011.9 0.0
25/09:30am 20.5 15.7 10.3 52 5.8 NNE 26 33 14 18 1016.3 1012.0 0.0
25/09:00am 19.1 14.4 11.9 63 4.2 NNE 28 37 15 20 1016.4 1012.1 0.0
25/08:30am 16.9 13.2 11.6 71 3.0 NNE 22 28 12 15 1016.5 1012.2 0.0
25/08:17am 16.8 13.9 12.9 78 2.3 NNE 20 28 11 15 1016.4 1012.1 0.0
25/08:00am 14.8 12.0 13.3 91 0.9 NE 20 24 11 13 1016.4 1012.1 0.0
25/07:30am 12.6 10.2 12.6 100 0.0 NE 17 20 9 11 1016.3 1012.0 0.0
25/07:00am 11.0 9.2 11.0 100 0.0 NNE 11 15 6 8 1016.2 1011.9 0.0
25/06:30am 9.8 7.7 9.8 100 0.0 NE 11 13 6 7 1016.1 1011.7 0.0
25/06:00am 9.8 8.1 9.8 100 0.0 N 9 11 5 6 1016.0 1011.6 0.0
25/05:30am 11.2 10.4 11.2 100 0.0 NNW 6 7 3 4 1015.9 1011.5 0.0
25/05:00am 11.9 11.2 11.9 100 0.0 NNW 7 11 4 6 1015.9 1011.5 0.0
25/04:30am 10.4 8.5 10.4 100 0.0 NNE 11 15 6 8 1015.7 1011.3 0.0
25/04:00am 11.3 9.2 11.3 100 0.0 NNE 13 15 7 8 1015.9 1011.5 0.0
25/03:30am 11.1 9.0 11.1 100 0.0 NE 13 15 7 8 1016.0 1011.6 0.0
25/03:00am 10.7 9.2 10.7 100 0.0 N 9 13 5 7 1016.2 1011.9 0.0
25/02:30am 11.7 10.5 11.7 100 0.0 NNE 9 13 5 7 1016.3 1012.0 0.0
25/02:00am 12.4 10.2 12.2 99 0.1 NNE 15 15 8 8 1016.4 1012.1 0.0
25/01:30am 13.4 10.8 13.2 99 0.1 NE 19 20 10 11 1016.8 1012.4 0.0
25/01:00am 13.6 11.0 13.1 97 0.3 NE 19 24 10 13 1016.8 1012.4 0.0
25/12:40am 14.0 10.4 13.1 94 0.5 NE 24 30 13 16 1016.9 1012.5 0.0
25/12:30am 14.2 10.6 12.9 92 0.7 ENE 24 32 13 17 1016.9 1012.5 0.0
25/12:00am 14.8 10.0 13.0 89 1.0 NE 30 39 16 21 1016.9 1012.5 0.0
 
Date/Time
EDT
Temp
°C
App
Temp
°C
Dew
Point
°C
Rel
Hum
%
Delta-T
°C
Wind Press
QNH
hPa
Press
MSL
hPa
Rain since
9am
mm
Dir  Spd
km/h
Gust
km/h
Spd
kts
Gust
kts
24/11:30pm 15.0 10.5 12.7 86 1.3 ENE 28 37 15 20 1017.1 1012.7 0.0
24/11:00pm 15.0 11.4 13.2 89 1.0 ENE 24 30 13 16 1017.0 1012.6 0.0
24/10:30pm 14.9 10.9 13.1 89 1.0 NE 26 30 14 16 1017.0 1012.6 0.0
24/10:00pm 14.8 10.7 12.7 87 1.2 NE 26 33 14 18 1016.7 1012.3 0.0
24/09:59pm 14.8 10.7 12.7 87 1.2 NE 26 33 14 18 1016.7 1012.3 0.0
24/09:30pm 15.0 11.1 12.0 82 1.7 NE 24 28 13 15 1016.0 1011.6 0.0
24/09:00pm 15.7 12.1 11.9 78 2.2 ENE 22 28 12 15 1015.3 1011.0 0.0
24/08:30pm 16.7 12.6 11.4 71 3.0 NE 24 32 13 17 1014.5 1010.1 0.0
24/08:00pm 18.4 13.4 11.0 62 4.2 ENE 28 35 15 19 1013.7 1009.3 0.0
24/07:44pm 20.5 17.6 9.7 50 6.0 E 15 22 8 12 1013.5 1009.1 0.0
24/07:30pm 23.4 18.5 -3.0 17 11.9 W 13 19 7 10 1012.9 1008.5 0.0
24/07:00pm 24.2 18.7 -2.4 17 12.2 W 17 24 9 13 1012.5 1008.1 0.0
24/06:30pm 25.0 19.8 -2.5 16 12.7 SW 15 24 8 13 1012.2 1007.7 0.0
24/06:00pm 25.8 19.1 -1.1 17 12.8 WSW 24 35 13 19 1012.0 1007.5 0.0
24/05:30pm 26.4 20.3 -2.3 15 13.4 SSW 20 32 11 17 1012.0 1007.5 0.0
24/05:00pm 25.2 20.0 -2.4 16 12.8 WSW 15 24 8 13 1012.1 1007.6 0.0
24/04:30pm 25.8 19.9 -1.9 16 13.0 WNW 19 30 10 16 1011.8 1007.4 0.0
24/04:00pm 25.9 20.4 -1.8 16 13.0 W 17 24 9 13 1012.1 1007.6 0.0
24/03:30pm 24.9 19.1 -1.8 17 12.5 WNW 19 32 10 17 1012.0 1007.5 0.0
24/03:00pm 25.3 19.5 -1.5 17 12.6 W 19 30 10 16 1012.1 1007.6 0.0
24/02:30pm 24.7 19.6 0.9 21 11.7 NW 17 28 9 15 1012.1 1007.6 0.0
24/02:00pm 23.6 17.9 0.7 22 11.1 WNW 20 35 11 19 1012.3 1007.9 0.0
24/01:30pm 23.5 18.0 0.6 22 11.1 WNW 19 32 10 17 1012.2 1007.7 0.0
24/01:00pm 22.9 16.9 1.3 24 10.5 NW 22 35 12 19 1012.5 1008.1 0.0
24/12:30pm 22.2 16.6 1.3 25 10.1 WNW 20 33 11 18 1012.5 1008.1 0.0
24/12:00pm 20.2 14.3 1.6 29 8.9 NW 22 33 12 18 1012.6 1008.2 0.0
24/11:30am 20.2 12.7 1.1 28 9.1 NW 30 44 16 24 1012.6 1008.2 0.0
24/11:00am 19.6 12.9 1.6 30 8.6 NW 26 35 14 19 1012.7 1008.3 0.0
24/10:30am 19.8 13.8 3.1 33 8.2 NW 24 37 13 20 1012.6 1008.2 0.0
24/10:00am 18.2 12.9 2.9 36 7.4 NW 20 33 11 18 1012.6 1008.2 0.0
24/09:30am 17.6 12.5 3.1 38 7.0 NW 19 30 10 16 1012.6 1008.2 0.0
24/09:00am 16.9 12.5 4.6 44 6.1 NW 17 24 9 13 1012.2 1007.7 0.6
24/08:30am 15.9 10.4 4.0 45 5.8 NW 22 32 12 17 1011.6 1007.2 0.6
24/08:00am 15.4 10.3 4.2 47 5.5 NNW 20 30 11 16 1010.9 1006.4 0.6
24/07:30am 14.2 9.1 5.8 57 4.2 NW 22 35 12 19 1010.0 1005.5 0.6
24/07:00am 13.1 8.5 6.7 65 3.2 N 20 26 11 14 1009.8 1005.3 0.6
24/06:30am 12.5 8.4 6.3 66 3.1 NNW 17 22 9 12 1009.5 1005.1 0.6
24/06:00am 12.8 9.2 6.6 66 3.1 NNW 15 20 8 11 1009.2 1004.7 0.6
24/05:30am 11.8 8.8 7.5 75 2.2 N 13 17 7 9 1009.1 1004.6 0.6
24/05:00am 10.4 7.9 8.2 86 1.1 NNE 11 13 6 7 1008.9 1004.4 0.6
24/04:30am 12.9 10.6 7.4 69 2.8 NW 9 15 5 8 1008.7 1004.2 0.6
24/04:00am 12.0 10.4 8.7 80 1.7 WNW 7 13 4 7 1008.6 1004.1 0.6
24/03:30am 12.6 11.2 8.7 77 2.0 NE 6 7 3 4 1008.4 1004.0 0.6
24/03:00am 12.8 11.2 8.7 76 2.2 N 7 11 4 6 1008.4 1004.0 0.6
24/02:30am 12.9 11.5 9.0 77 2.1 NNE 6 7 3 4 1008.4 1004.0 0.6
24/02:00am 12.4 11.0 8.7 78 1.9 NE 6 6 3 3 1008.6 1004.1 0.6
24/01:30am 12.7 10.5 7.8 72 2.5 N 9 9 5 5 1008.3 1003.8 0.6
24/01:00am 13.9 12.2 8.3 69 3.0 NNW 7 11 4 6 1008.3 1003.8 0.6
24/12:30am 14.3 11.9 8.5 68 3.1 N 11 13 6 7 1008.7 1004.2 0.6
24/12:00am 14.3 11.9 8.5 68 3.1 N 11 15 6 8 1008.4 1004.0 0.6
 
Date/Time
EDT
Temp
°C
App
Temp
°C
Dew
Point
°C
Rel
Hum
%
Delta-T
°C
Wind Press
QNH
hPa
Press
MSL
hPa
Rain since
9am
mm
Dir  Spd
km/h
Gust
km/h
Spd
kts
Gust
kts
23/11:30pm 15.4 12.9 8.4 63 3.7 NNW 11 15 6 8 1008.3 1003.8 0.6
23/11:00pm 15.5 13.0 8.3 62 3.8 NNW 11 17 6 9 1008.3 1003.8 0.6
23/10:30pm 15.8 12.9 8.3 61 4.0 NW 13 20 7 11 1008.1 1003.6 0.6
23/10:00pm 16.1 12.4 8.1 59 4.3 WNW 17 26 9 14 1007.8 1003.3 0.6
23/09:30pm 16.1 11.9 8.1 59 4.2 WNW 20 28 11 15 1007.2 1002.7 0.6
23/09:00pm 16.4 11.7 7.9 57 4.5 WNW 22 30 12 16 1006.8 1002.3 0.6
23/08:30pm 16.7 12.5 8.1 57 4.6 WNW 20 30 11 16 1006.4 1001.8 0.6
23/08:00pm 17.7 13.1 8.0 53 5.2 WNW 22 32 12 17 1005.9 1001.4 0.6
23/07:30pm 19.5 15.9 10.0 54 5.3 NW 19 26 10 14 1005.6 1001.1 0.6
23/07:00pm 19.6 16.3 11.6 60 4.6 NNW 20 32 11 17 1005.2 1000.6 0.6
23/06:39pm 20.0 15.2 11.5 58 4.9 NW 28 46 15 25 1004.3 999.7 0.6
23/06:30pm 20.1 13.8 11.1 56 5.2 NNW 35 50 19 27 1004.4 999.8 0.6
23/06:00pm 21.0 14.7 11.1 53 5.7 NW 35 59 19 32 1004.0 999.4 0.6
23/05:30pm 21.0 15.7 11.3 54 5.6 NW 30 48 16 26 1003.7 999.2 0.6
23/05:00pm 20.9 14.7 11.5 55 5.5 NW 35 59 19 32 1003.4 998.8 0.6
23/04:30pm 21.2 16.0 12.9 59 4.9 NW 32 50 17 27 1003.6 999.1 0.6
23/04:00pm 18.7 12.7 14.4 76 2.6 NNW 39 61 21 33 1002.9 998.3 0.6
23/03:30pm 22.9 15.7 9.3 42 7.7 NNW 37 57 20 31 1003.4 998.8 0.0
23/03:11pm 24.4 17.9 10.3 41 8.1 NW 35 57 19 31 1003.3 998.7 0.0
23/03:09pm 23.7 16.9 9.3 40 8.1 WNW 35 57 19 31 1003.2 998.6 0.0
23/03:04pm 23.6 17.3 8.8 39 8.3 WNW 32 52 17 28 1004.0 999.4 0.0
23/03:00pm 24.4 19.3 9.2 38 8.6 WNW 26 44 14 24 1003.8 999.3 0.0
23/02:30pm 25.6 17.8 8.1 33 9.8 WNW 39 65 21 35 1003.4 998.8 0.0
23/02:27pm 25.5 17.7 8.1 33 9.7 WNW 39 65 21 35 1003.2 998.6 0.0
23/02:18pm 25.9 18.7 7.5 31 10.2 NW 35 65 19 35 1003.0 998.4 0.0
23/02:03pm 27.0 20.6 8.4 31 10.5 NW 32 57 17 31 1002.8 998.2 0.0
23/02:00pm 26.7 20.3 8.6 32 10.3 NW 32 46 17 25 1002.6 998.1 0.0
23/01:54pm 26.6 20.6 8.6 32 10.2 NW 30 46 16 25 1002.4 997.8 0.0
23/01:30pm 26.0 17.9 7.1 30 10.4 NW 39 57 21 31 1002.2 997.6 0.0
23/01:21pm 26.8 19.8 6.8 28 11.0 NW 33 56 18 30 1002.3 997.7 0.0
23/01:20pm 27.4 20.8 7.8 29 11.0 NW 32 50 17 27 1002.2 997.6 0.0
23/01:04pm 26.1 16.4 5.7 27 11.0 NW 46 72 25 39 1002.8 998.2 0.0
23/01:00pm 26.8 17.5 5.7 26 11.4 NW 44 69 24 37 1002.8 998.2 0.0
23/12:51pm 27.3 19.2 7.2 28 11.2 NW 39 69 21 37 1002.2 997.6 0.0
23/12:30pm 27.9 19.7 6.6 26 11.7 NNW 39 67 21 36 1001.6 996.9 0.0
23/12:09pm 27.0 17.1 4.7 24 11.8 NNW 46 69 25 37 1001.8 997.2 0.0
23/12:00pm 27.7 17.5 3.4 21 12.7 NW 46 67 25 36 1001.9 997.3 0.0
23/11:58am 28.1 18.0 3.7 21 12.8 NNW 46 70 25 38 1001.7 997.1 0.0
23/11:36am 28.0 18.7 3.0 20 13.0 NW 41 67 22 36 1002.0 997.4 0.0
23/11:32am 28.3 18.7 3.2 20 13.1 NNW 43 69 23 37 1001.7 997.1 0.0
23/11:30am 28.2 18.4 3.1 20 13.1 NNW 44 69 24 37 1001.3 996.7 0.0
23/11:15am 27.7 16.4 1.2 18 13.3 NW 50 78 27 42 1001.9 997.3 0.0
23/11:00am 28.2 15.3 -0.9 15 14.2 NW 57 91 31 49 1001.7 997.1 0.0
23/10:59am 28.5 15.8 -0.6 15 14.2 NW 56 91 30 49 1001.7 997.1 0.0
23/10:30am 28.6 17.5 -2.5 13 14.7 NW 46 74 25 40 1000.2 995.6 0.0
23/10:19am 28.0 15.6 -4.0 12 14.7 NNW 52 80 28 43 1000.1 995.5 0.0
23/10:08am 28.2 15.5 -3.9 12 14.8 NNW 54 93 29 50 1000.1 995.5 0.0
23/10:06am 28.2 15.8 -3.9 12 14.8 NNW 52 93 28 50 1000.0 995.4 0.0
23/10:04am 28.3 15.9 -3.8 12 14.8 NNW 52 93 28 50 999.9 995.3 0.0
23/10:00am 28.2 17.1 -2.8 13 14.7 NNW 46 76 25 41 1000.0 995.4 0.0
23/09:39am 27.9 14.2 -4.1 12 14.7 NW 59 93 32 50 1000.5 995.8 0.0
23/09:30am 28.2 14.5 -3.9 12 14.8 NW 59 89 32 48 1000.3 995.7 0.0
23/09:18am 28.9 16.8 -4.5 11 15.3 NNW 50 96 27 52 1000.0 995.4 0.0
23/09:17am 28.9 17.2 -4.5 11 15.3 NNW 48 96 26 52 1000.3 995.7 0.0
23/09:16am 29.0 18.1 -4.4 11 15.3 NW 44 91 24 49 1000.6 995.9 0.0
23/09:00am 28.7 18.1 -3.5 12 15.1 NNW 43 70 23 38 1000.2 995.6 0.0
23/08:48am 28.9 20.4 -3.3 12 15.1 NNW 32 74 17 40 1000.6 995.9 0.0
23/08:30am 27.9 20.7 -2.0 14 14.2 N 26 37 14 20 1001.1 996.5 0.0
23/08:00am 26.9 19.5 -1.0 16 13.5 N 28 43 15 23 1000.8 996.2 0.0
23/07:30am 22.3 15.8 2.4 27 9.9 NE 26 33 14 18 1001.1 996.5 0.0
23/07:00am 18.7 12.9 2.5 34 7.9 NE 22 28 12 15 1001.3 996.7 0.0
23/06:30am 19.0 13.2 2.4 33 8.0 NNE 22 28 12 15 1001.6 996.9 0.0
23/06:00am 18.5 12.0 2.4 34 7.8 NE 26 32 14 17 1001.7 997.1 0.0
23/05:30am 18.2 12.1 2.9 36 7.4 NE 24 30 13 16 1002.1 997.5 0.0
23/05:00am 18.6 12.9 2.9 35 7.7 NE 22 26 12 14 1002.3 997.7 0.0
23/04:30am 18.5 13.2 3.2 36 7.5 NE 20 26 11 14 1002.9 998.3 0.0
23/04:00am 18.6 12.9 2.9 35 7.7 NE 22 30 12 16 1003.3 998.7 0.0
23/03:30am 19.1 13.4 2.9 34 7.9 NE 22 26 12 14 1003.6 999.1 0.0
23/03:00am 18.6 13.4 3.3 36 7.5 NE 20 24 11 13 1004.4 999.8 0.0
23/02:30am 19.4 14.2 2.7 33 8.1 NE 19 22 10 12 1005.1 1000.5 0.0
23/02:00am 19.3 14.2 3.1 34 8.0 NNE 19 24 10 13 1005.6 1001.1 0.0
23/01:30am 21.4 15.1 1.7 27 9.6 N 24 30 13 16 1005.7 1001.2 0.0
23/01:00am 21.0 14.8 2.3 29 9.2 N 24 28 13 15 1006.0 1001.5 0.0
23/12:30am 17.9 13.1 4.8 42 6.6 NE 19 20 10 11 1006.1 1001.6 0.0
23/12:00am 18.6 14.3 5.1 41 6.9 NNE 17 20 9 11 1006.4 1001.8 0.0
 
Date/Time
EDT
Temp
°C
App
Temp
°C
Dew
Point
°C
Rel
Hum
%
Delta-T
°C
Wind Press
QNH
hPa
Press
MSL
hPa
Rain since
9am
mm
Dir  Spd
km/h
Gust
km/h
Spd
kts
Gust
kts
22/11:30pm 18.3 14.4 5.2 42 6.7 NNE 15 17 8 9 1006.8 1002.3 0.0
22/11:00pm 19.1 14.9 5.6 41 7.0 NNE 17 17 9 9 1007.1 1002.6 0.0

Latest Capital City Observations: Canberra | Sydney | Melbourne | Brisbane | Adelaide | Perth | Hobart | Darwin

Other formats

Comma delimited format used in spreadsheet applications
http://www.bom.gov.au/fwo/IDN60903/IDN60903.94921.axf

JavaScript Object Notation format (JSON) in row-major order
http://www.bom.gov.au/fwo/IDN60903/IDN60903.94921.json

Data quality

Most of these data are generated automatically and are frequently updated. Quality checks on data are not normally performed. It is possible for incorrect values to appear. Refer to information at About Latest Weather Observations and please check the disclaimer before using these data.